Time;durP1;ratioP1;P1;durP2;ratioP2;P2;SDS_P1;SDS_P2;PMS_P1;PMS_P2;Temp;Humidity;BMP_temperature;BMP_pressure;BME280_temperature;BME280_humidity;BME280_pressure;Samples;Min_cycle;Max_cycle;Signal;HPM_P1;HPM_P2
2022/12/20 00:00:51;;;;;;;3.83;2.47;;;;;;;11.07;100.00;101291.59;5153405;29;20056;-71
2022/12/20 00:03:23;;;;;;;6.53;2.97;;;;;;;11.08;100.00;101293.25;5152792;28;20027;-71
2022/12/20 00:05:54;;;;;;;6.65;2.17;;;;;;;11.09;100.00;101287.88;5150384;29;20050;-71
2022/12/20 00:08:25;;;;;;;5.68;2.72;;;;;;;11.06;100.00;101284.66;5150760;29;20030;-71
2022/12/20 00:11:00;;;;;;;4.03;2.70;;;;;;;11.14;100.00;101285.72;5153341;29;20052;-71
2022/12/20 00:13:31;;;;;;;6.88;2.55;;;;;;;11.05;100.00;101283.00;5153327;28;20027;-71
2022/12/20 00:16:09;;;;;;;6.03;2.78;;;;;;;11.13;100.00;101291.91;5134550;29;20049;-71
2022/12/20 00:18:40;;;;;;;4.72;2.60;;;;;;;11.14;100.00;101279.66;5153390;29;20035;-72
2022/12/20 00:21:13;;;;;;;5.82;3.25;;;;;;;11.12;100.00;101276.31;5150779;28;20029;-71
2022/12/20 00:23:44;;;;;;;6.25;3.08;;;;;;;11.20;100.00;101287.00;5151279;28;20039;-71
2022/12/20 00:26:18;;;;;;;7.25;3.30;;;;;;;11.19;100.00;101278.31;5153677;29;20082;-71
2022/12/20 00:28:50;;;;;;;6.50;2.92;;;;;;;11.20;100.00;101274.72;5152696;29;20027;-71
2022/12/20 00:31:23;;;;;;;7.32;2.70;;;;;;;11.28;100.00;101273.28;5151651;29;20428;-71
2022/12/20 00:33:56;;;;;;;5.25;3.05;;;;;;;11.29;100.00;101267.94;5151372;28;20031;-72
2022/12/20 00:36:29;;;;;;;6.40;3.50;;;;;;;11.29;100.00;101267.06;5151916;29;20042;-71
2022/12/20 00:39:01;;;;;;;7.45;3.13;;;;;;;11.36;100.00;101269.06;5151434;29;20061;-71
2022/12/20 00:41:33;;;;;;;7.75;3.10;;;;;;;11.40;100.00;101267.88;5151996;29;20027;-71
2022/12/20 00:44:05;;;;;;;7.50;3.60;;;;;;;11.42;100.00;101257.25;5153769;28;20514;-71
2022/12/20 00:46:36;;;;;;;6.72;3.33;;;;;;;11.43;100.00;101253.66;5152331;29;20027;-71
2022/12/20 00:49:07;;;;;;;7.70;3.20;;;;;;;11.45;100.00;101243.91;5151640;29;20046;-71
2022/12/20 00:51:38;;;;;;;7.22;3.47;;;;;;;11.54;100.00;101251.00;5143306;29;20019;-72
2022/12/20 00:54:10;;;;;;;7.45;3.50;;;;;;;11.51;100.00;101260.91;5150845;28;20038;-71
2022/12/20 00:56:41;;;;;;;6.50;3.70;;;;;;;11.56;100.00;101258.75;5149033;29;20046;-71
2022/12/20 00:59:12;;;;;;;5.38;2.70;;;;;;;11.55;100.00;101247.41;5149684;29;20026;-71
2022/12/20 01:01:44;;;;;;;8.30;3.35;;;;;;;11.57;100.00;101253.38;5145557;29;20079;-71
2022/12/20 01:04:15;;;;;;;5.22;2.38;;;;;;;11.57;100.00;101253.38;5139580;29;20031;-71
2022/12/20 01:06:46;;;;;;;6.65;2.58;;;;;;;11.54;100.00;101251.00;5151048;29;20492;-71
2022/12/20 01:09:17;;;;;;;6.03;2.97;;;;;;;11.47;100.00;101255.09;5152404;29;20114;-71
2022/12/20 01:11:49;;;;;;;5.32;2.20;;;;;;;11.40;100.00;101267.03;5149531;29;20023;-72
2022/12/20 01:14:20;;;;;;;4.95;2.38;;;;;;;11.34;100.00;101262.31;5151541;28;20039;-72
2022/12/20 01:16:51;;;;;;;4.03;2.35;;;;;;;11.33;100.00;101266.72;5150580;28;20118;-72
2022/12/20 01:19:23;;;;;;;4.18;2.35;;;;;;;11.29;100.00;101259.19;5136064;29;20031;-72
2022/12/20 01:21:54;;;;;;;4.05;2.00;;;;;;;11.26;100.00;101264.72;5149246;29;20027;-72
2022/12/20 01:24:26;;;;;;;4.43;2.17;;;;;;;11.21;100.00;101249.34;5151675;28;20027;-71
2022/12/20 01:26:57;;;;;;;4.18;2.50;;;;;;;11.21;100.00;101259.81;5149955;29;20039;-72
2022/12/20 01:29:29;;;;;;;3.85;2.30;;;;;;;11.15;100.00;101266.41;5149130;29;20035;-72
2022/12/20 01:32:00;;;;;;;3.33;2.10;;;;;;;11.04;100.00;101265.59;5150569;29;20085;-72
2022/12/20 01:34:31;;;;;;;4.65;2.60;;;;;;;11.05;100.00;101264.66;5153124;28;20035;-71
2022/12/20 01:37:03;;;;;;;5.78;2.17;;;;;;;11.00;100.00;101257.16;5153138;29;20019;-71
2022/12/20 01:39:34;;;;;;;3.55;2.30;;;;;;;10.96;100.00;101246.06;5150164;29;20035;-71
2022/12/20 01:42:05;;;;;;;3.38;2.60;;;;;;;10.92;100.00;101241.22;5152989;29;20020;-72
2022/12/20 01:44:40;;;;;;;3.30;2.38;;;;;;;10.96;100.00;101243.44;5149605;28;20043;-72
2022/12/20 01:47:12;;;;;;;4.28;2.30;;;;;;;10.81;100.00;101234.19;5150353;29;20055;-72
2022/12/20 01:49:47;;;;;;;3.95;2.50;;;;;;;10.92;100.00;101243.81;5152680;29;20489;-72
2022/12/20 01:52:36;;;;;;;4.57;2.65;;;;;;;10.97;100.00;101215.44;5153187;28;20027;-72
2022/12/20 01:55:18;;;;;;;5.10;2.40;;;;;;;10.95;100.00;101207.72;5152722;29;20033;-72
2022/12/20 01:57:57;;;;;;;6.13;2.67;;;;;;;10.91;100.00;101213.31;5147303;29;20138;-72
2022/12/20 02:00:29;;;;;;;6.43;3.10;;;;;;;10.85;100.00;101217.25;5153602;28;20042;-72
2022/12/20 02:03:05;;;;;;;3.60;2.42;;;;;;;10.88;100.00;101209.16;5156137;28;20019;-72
2022/12/20 02:05:38;;;;;;;8.73;2.90;;;;;;;10.86;100.00;101216.31;5154146;29;20035;-72
2022/12/20 02:08:12;;;;;;;6.38;3.13;;;;;;;10.84;100.00;101220.03;5153601;29;20481;-72
2022/12/20 02:10:57;;;;;;;7.38;3.58;;;;;;;10.88;100.00;101217.03;5152150;28;20058;-72
2022/12/20 02:13:48;;;;;;;6.60;3.10;;;;;;;10.97;100.00;101199.72;5150309;28;20044;-72
2022/12/20 02:16:27;;;;;;;7.10;3.60;;;;;;;10.90;100.00;101193.31;5155681;29;20031;-72
2022/12/20 02:19:10;;;;;;;8.20;3.72;;;;;;;10.84;100.00;101188.56;5146133;29;20023;-72
2022/12/20 02:22:07;;;;;;;8.85;3.00;;;;;;;10.97;100.00;101184.00;5154376;29;20142;-72
2022/12/20 02:25:15;;;;;;;4.28;2.47;;;;;;;10.88;100.00;101184.75;5155475;28;20094;-72
2022/12/20 02:28:20;;;;;;;4.97;2.50;;;;;;;10.96;100.00;101188.41;5137586;29;20141;-72
2022/12/20 02:30:53;;;;;;;5.15;2.47;;;;;;;10.76;100.00;101183.94;5153674;29;20040;-72
2022/12/20 02:33:27;;;;;;;5.13;2.50;;;;;;;10.68;100.00;101179.31;5153249;28;20031;-72
2022/12/20 02:35:58;;;;;;;3.78;2.22;;;;;;;10.72;100.00;101179.91;5154746;29;20042;-72
2022/12/20 02:38:35;;;;;;;3.75;2.40;;;;;;;10.76;100.00;101173.47;5153629;29;20051;-72
2022/12/20 02:41:23;;;;;;;4.40;2.22;;;;;;;10.83;100.00;101181.63;5153362;29;20067;-72
2022/12/20 02:46:51;;;;;;;3.50;1.85;;;;;;;10.75;100.00;101173.56;5154380;29;20409;-72
2022/12/20 02:49:26;;;;;;;2.72;2.10;;;;;;;10.79;100.00;101173.19;5136495;29;20501;-73
2022/12/20 02:52:00;;;;;;;3.33;2.33;;;;;;;10.76;100.00;101165.59;5152180;29;20031;-72
2022/12/20 02:54:31;;;;;;;4.03;1.88;;;;;;;10.80;100.00;101160.94;5154964;28;20038;-72
2022/12/20 02:57:19;;;;;;;2.95;2.08;;;;;;;10.93;100.00;101164.22;5154179;29;20036;-72
2022/12/20 03:00:05;;;;;;;5.55;2.25;;;;;;;10.91;100.00;101160.88;5153529;29;20078;-72
2022/12/20 03:05:28;;;;;;;3.22;1.88;;;;;;;10.85;100.00;101158.78;5152492;29;20492;-72
2022/12/20 03:08:00;;;;;;;3.40;2.15;;;;;;;10.82;100.00;101159.84;5153909;29;20027;-72
2022/12/20 03:10:31;;;;;;;4.65;1.80;;;;;;;10.83;100.00;101153.63;5153050;29;20089;-72
2022/12/20 03:13:03;;;;;;;2.83;1.75;;;;;;;10.83;100.00;101169.38;5152725;28;20023;-72
2022/12/20 03:15:34;;;;;;;3.55;2.03;;;;;;;10.88;100.00;101164.59;5154912;29;20038;-72
2022/12/20 03:18:06;;;;;;;4.70;2.17;;;;;;;10.98;100.00;101161.22;5143460;29;20019;-72
2022/12/20 03:20:37;;;;;;;3.40;1.95;;;;;;;11.01;100.00;101153.09;5153507;29;20118;-72
2022/12/20 03:23:09;;;;;;;4.45;2.33;;;;;;;11.03;100.00;101148.59;5152981;28;20043;-73
2022/12/20 03:25:40;;;;;;;4.28;1.80;;;;;;;11.09;100.00;101151.53;5153992;29;20682;-73
2022/12/20 03:28:12;;;;;;;4.28;1.67;;;;;;;11.09;100.00;101150.69;5154698;29;20031;-72
2022/12/20 03:30:43;;;;;;;4.20;1.85;;;;;;;11.12;100.00;101155.69;5154675;29;20027;-73
2022/12/20 03:33:14;;;;;;;4.30;1.90;;;;;;;11.11;100.00;101135.69;5148853;28;20027;-72
2022/12/20 03:35:46;;;;;;;3.90;1.85;;;;;;;11.18;100.00;101150.78;5152195;29;20039;-72
2022/12/20 03:38:17;;;;;;;4.03;2.08;;;;;;;11.22;100.00;101158.41;5153909;29;20027;-72
2022/12/20 03:40:49;;;;;;;3.25;1.83;;;;;;;11.21;100.00;101165.41;5151995;29;20436;-72
2022/12/20 03:43:20;;;;;;;4.88;2.35;;;;;;;11.24;100.00;101162.53;5152640;28;20532;-72
2022/12/20 03:45:51;;;;;;;3.08;1.75;;;;;;;11.29;100.00;101164.78;5154226;29;20460;-72
2022/12/20 03:48:23;;;;;;;3.17;1.80;;;;;;;11.28;100.00;101161.31;5153256;29;20485;-72
2022/12/20 03:50:54;;;;;;;3.78;2.05;;;;;;;11.36;100.00;101158.06;5152059;29;20543;-73
2022/12/20 03:53:25;;;;;;;3.47;1.90;;;;;;;11.39;100.00;101152.56;5154377;28;20133;-72
2022/12/20 03:55:57;;;;;;;3.85;1.95;;;;;;;11.41;100.00;101162.00;5154572;29;20019;-72
2022/12/20 03:58:29;;;;;;;3.67;1.85;;;;;;;11.47;100.00;101154.56;5152668;29;20047;-72
2022/12/20 04:01:00;;;;;;;2.45;1.60;;;;;;;11.51;100.00;101158.59;5151734;28;20059;-72
2022/12/20 04:03:31;;;;;;;4.10;1.85;;;;;;;11.53;100.00;101147.00;5154465;28;20122;-72
2022/12/20 04:06:03;;;;;;;3.67;2.00;;;;;;;11.55;100.00;101149.50;5152235;29;20485;-72
2022/12/20 04:08:34;;;;;;;3.50;1.73;;;;;;;11.57;100.00;101150.22;5153675;29;20497;-72
2022/12/20 04:11:15;;;;;;;5.28;2.00;;;;;;;11.61;100.00;101154.22;5153360;29;20026;-72
2022/12/20 04:13:51;;;;;;;4.10;1.80;;;;;;;11.71;100.00;101149.88;5134441;29;20134;-73
2022/12/20 04:16:25;;;;;;;3.38;1.90;;;;;;;11.68;100.00;101148.34;5150625;29;20038;-72
2022/12/20 04:18:57;;;;;;;2.75;1.70;;;;;;;11.69;100.00;101150.00;5154126;29;20051;-71
2022/12/20 04:21:31;;;;;;;2.80;2.00;;;;;;;11.73;100.00;101150.56;5153303;29;20409;-72
2022/12/20 04:24:03;;;;;;;3.58;1.98;;;;;;;11.72;100.00;101148.91;5134280;29;20041;-72
2022/12/20 04:26:35;;;;;;;4.17;1.87;;;;;;;11.71;100.00;101141.19;5151430;28;20464;-71
2022/12/20 04:29:07;;;;;;;3.13;2.00;;;;;;;11.78;100.00;101148.41;5152540;29;20305;-72
2022/12/20 04:31:38;;;;;;;3.65;2.00;;;;;;;11.77;100.00;101140.63;5151424;29;20393;-72
2022/12/20 04:34:09;;;;;;;4.03;1.80;;;;;;;11.79;100.00;101138.72;5153713;28;20439;-72
2022/12/20 04:36:41;;;;;;;3.03;1.80;;;;;;;11.77;100.00;101143.25;5153475;29;20404;-72
2022/12/20 04:39:12;;;;;;;3.72;1.95;;;;;;;11.78;100.00;101140.53;5152567;29;20464;-72
2022/12/20 04:41:43;;;;;;;3.10;1.92;;;;;;;11.80;100.00;101130.72;5151625;29;20456;-71
2022/12/20 04:44:15;;;;;;;3.42;2.00;;;;;;;11.76;100.00;101137.19;5151513;29;20165;-71
2022/12/20 04:46:46;;;;;;;3.47;1.95;;;;;;;11.78;100.00;101137.91;5150803;29;20027;-72
2022/12/20 04:49:17;;;;;;;5.53;2.00;;;;;;;11.78;100.00;101140.53;5145880;29;20551;-71
2022/12/20 04:51:48;;;;;;;2.72;1.73;;;;;;;11.81;100.00;101145.50;5145120;29;20038;-72
2022/12/20 04:54:20;;;;;;;4.93;1.67;;;;;;;11.84;100.00;101136.56;5150345;28;20027;-71
2022/12/20 04:56:51;;;;;;;4.43;1.90;;;;;;;11.84;100.00;101141.81;5150758;29;20039;-72
2022/12/20 04:59:22;;;;;;;4.32;2.17;;;;;;;11.85;100.00;101133.78;5152258;29;20023;-71
2022/12/20 05:01:53;;;;;;;4.53;1.90;;;;;;;11.83;100.00;101120.00;5149249;29;20469;-71
2022/12/20 05:04:25;;;;;;;3.28;1.77;;;;;;;11.90;100.00;101121.13;5136357;29;20066;-71
2022/12/20 05:06:56;;;;;;;5.05;2.28;;;;;;;11.88;100.00;101122.22;5152737;29;20481;-71
2022/12/20 05:09:27;;;;;;;4.20;2.00;;;;;;;11.87;100.00;101120.56;5151716;29;20027;-72
2022/12/20 05:11:58;;;;;;;4.22;2.08;;;;;;;11.89;100.00;101116.00;5147560;29;20019;-72
2022/12/20 05:14:30;;;;;;;4.45;2.08;;;;;;;11.90;100.00;101113.25;5153102;28;20404;-72
2022/12/20 05:17:01;;;;;;;3.10;2.05;;;;;;;11.93;100.00;101115.63;5153074;29;20019;-71
2022/12/20 05:19:32;;;;;;;3.65;2.00;;;;;;;11.88;100.00;101107.28;5151693;29;20039;-72
2022/12/20 05:27:43;;;;;;;4.82;1.98;;;;;;;11.93;100.00;101083.25;5153812;29;20055;-72
2022/12/20 05:30:15;;;;;;;3.72;1.85;;;;;;;11.92;100.00;101092.94;5153752;29;20338;-72
2022/12/20 05:32:46;;;;;;;4.85;2.25;;;;;;;11.88;100.00;101088.91;5132197;29;20027;-72
2022/12/20 05:35:18;;;;;;;3.42;1.90;;;;;;;11.87;100.00;101075.94;5153814;28;20441;-72
2022/12/20 05:37:49;;;;;;;2.78;2.03;;;;;;;11.89;100.00;101085.34;5156077;29;20046;-72
2022/12/20 05:40:21;;;;;;;3.85;2.05;;;;;;;11.88;100.00;101075.78;5154183;29;20035;-71
2022/12/20 05:42:52;;;;;;;4.13;1.70;;;;;;;11.88;100.00;101074.97;5156862;28;20026;-72
2022/12/20 05:45:24;;;;;;;4.32;2.15;;;;;;;11.90;100.00;101078.28;5155473;29;20027;-72
2022/12/20 05:47:55;;;;;;;3.40;1.77;;;;;;;11.91;100.00;101080.78;5155902;29;20111;-71
2022/12/20 05:50:26;;;;;;;5.65;1.65;;;;;;;11.89;100.00;101081.84;5152478;28;20094;-71
2022/12/20 05:52:57;;;;;;;3.00;1.83;;;;;;;11.96;100.00;101072.50;5154447;28;20205;-71
2022/12/20 05:55:29;;;;;;;4.50;1.50;;;;;;;11.90;100.00;101066.00;5153194;29;20078;-72
2022/12/20 05:58:01;;;;;;;3.58;1.63;;;;;;;11.87;100.00;101055.75;5153229;29;20027;-71
2022/12/20 06:00:32;;;;;;;2.60;1.50;;;;;;;11.89;100.00;101055.59;5155820;29;20113;-72
2022/12/20 06:03:03;;;;;;;2.90;1.60;;;;;;;11.84;100.00;101053.38;5153740;28;20063;-72
2022/12/20 06:05:38;;;;;;;3.22;1.27;;;;;;;11.94;100.00;101042.94;5148979;29;20853;-72
2022/12/20 06:08:10;;;;;;;4.03;2.03;;;;;;;11.86;100.00;101027.84;5156128;29;20511;-71
2022/12/20 06:10:42;;;;;;;3.63;2.07;;;;;;;11.87;100.00;101019.00;5156453;29;20035;-72
2022/12/20 06:13:13;;;;;;;4.20;1.63;;;;;;;11.87;100.00;101015.53;5156532;28;20038;-71
2022/12/20 06:15:44;;;;;;;4.00;1.60;;;;;;;11.87;100.00;101019.00;5153365;29;20035;-71
2022/12/20 06:18:15;;;;;;;2.75;1.95;;;;;;;11.88;100.00;101014.56;5154550;28;20023;-71
2022/12/20 06:20:51;;;;;;;3.47;1.55;;;;;;;11.93;100.00;101025.50;5155375;29;20239;-71
2022/12/20 06:23:22;;;;;;;3.22;1.70;;;;;;;11.83;100.00;101012.34;5138833;29;20547;-71
2022/12/20 06:25:54;;;;;;;3.88;1.65;;;;;;;11.80;100.00;101019.63;5152591;29;20031;-71
2022/12/20 06:28:25;;;;;;;3.88;1.50;;;;;;;11.76;100.00;101019.06;5137555;29;20480;-71
2022/12/20 06:30:57;;;;;;;4.13;1.55;;;;;;;11.77;100.00;101031.22;5152760;29;20078;-71
2022/12/20 06:33:28;;;;;;;3.67;1.30;;;;;;;11.73;100.00;101032.47;5155613;28;20046;-71
2022/12/20 06:36:00;;;;;;;4.47;1.48;;;;;;;11.75;100.00;101038.41;5148867;29;20027;-71
2022/12/20 06:38:31;;;;;;;3.13;1.45;;;;;;;11.72;100.00;101025.56;5153210;29;20511;-71
2022/12/20 06:41:02;;;;;;;4.03;1.30;;;;;;;11.76;100.00;101023.50;5155439;29;20053;-71
2022/12/20 06:43:34;;;;;;;2.90;1.38;;;;;;;11.72;100.00;101027.34;5154576;28;20042;-71
2022/12/20 06:46:05;;;;;;;2.45;1.48;;;;;;;11.75;100.00;101025.28;5152565;28;20118;-71
2022/12/20 06:48:36;;;;;;;3.20;1.73;;;;;;;11.79;100.00;101034.56;5138122;29;20038;-71
2022/12/20 06:51:08;;;;;;;3.22;1.55;;;;;;;11.85;100.00;101026.16;5153464;29;20540;-71
2022/12/20 06:53:39;;;;;;;3.30;1.50;;;;;;;11.85;100.00;101022.72;5152205;28;20066;-71
2022/12/20 06:56:10;;;;;;;3.15;1.63;;;;;;;11.86;100.00;101030.47;5156236;29;20122;-71
2022/12/20 06:58:41;;;;;;;2.25;1.20;;;;;;;11.84;100.00;101031.56;5153437;29;20027;-72
2022/12/20 07:01:13;;;;;;;3.13;1.42;;;;;;;11.80;100.00;101030.13;5151229;29;20034;-72
2022/12/20 07:03:44;;;;;;;3.28;1.70;;;;;;;11.79;100.00;101029.31;5152200;28;20027;-71
2022/12/20 07:06:15;;;;;;;3.85;1.75;;;;;;;11.84;100.00;101042.06;5153488;29;20050;-71
2022/12/20 07:08:46;;;;;;;4.38;1.35;;;;;;;11.87;100.00;101033.91;5148341;29;20105;-71
2022/12/20 07:11:18;;;;;;;3.47;1.50;;;;;;;11.82;100.00;101026.44;5152967;29;20058;-72
2022/12/20 07:13:54;;;;;;;2.60;1.27;;;;;;;11.96;100.00;101040.97;5154710;28;20053;-71
2022/12/20 07:16:25;;;;;;;4.13;1.38;;;;;;;11.90;100.00;101036.28;5153385;29;20034;-71
2022/12/20 07:18:57;;;;;;;5.20;1.63;;;;;;;11.92;100.00;101040.41;5151232;29;20031;-71
2022/12/20 07:21:28;;;;;;;4.32;1.50;;;;;;;11.89;100.00;101047.72;5151090;29;20051;-71
2022/12/20 07:23:59;;;;;;;2.67;1.35;;;;;;;11.94;100.00;101035.06;5147345;28;20023;-71
2022/12/20 07:26:31;;;;;;;2.58;1.40;;;;;;;11.89;100.00;101035.47;5154857;29;20031;-71
2022/12/20 07:29:02;;;;;;;2.55;1.38;;;;;;;11.94;100.00;101037.69;5154520;29;20400;-71
2022/12/20 07:31:33;;;;;;;3.85;1.30;;;;;;;11.92;100.00;101040.41;5154913;29;20015;-71
2022/12/20 07:34:05;;;;;;;3.90;1.60;;;;;;;11.95;100.00;101046.38;5152827;28;20097;-71
2022/12/20 07:36:36;;;;;;;5.47;1.55;;;;;;;11.98;100.00;101043.50;5153715;29;20037;-71
2022/12/20 07:39:07;;;;;;;3.13;1.35;;;;;;;11.97;100.00;101042.66;5152083;29;20034;-71
2022/12/20 07:41:39;;;;;;;2.42;1.33;;;;;;;11.98;100.00;101043.50;5150206;28;20038;-71
2022/12/20 07:44:10;;;;;;;4.32;1.40;;;;;;;12.02;100.00;101055.38;5153084;28;20035;-71
2022/12/20 07:46:41;;;;;;;3.85;1.35;;;;;;;11.99;100.00;101047.78;5154583;29;20043;-71
2022/12/20 07:49:13;;;;;;;3.03;1.35;;;;;;;12.01;100.00;101054.56;5136443;29;20039;-71
2022/12/20 07:51:50;;;;;;;4.60;1.55;;;;;;;12.07;100.00;101056.63;5152059;29;20102;-71
2022/12/20 07:54:29;;;;;;;3.95;1.50;;;;;;;12.09;100.00;101067.03;5151079;28;20031;-71
2022/12/20 07:57:05;;;;;;;3.40;1.55;;;;;;;12.06;100.00;101059.41;5147699;29;20109;-71
2022/12/20 07:59:40;;;;;;;2.95;1.50;;;;;;;12.02;100.00;101071.97;5151950;28;20055;-71
2022/12/20 08:02:16;;;;;;;3.17;1.45;;;;;;;11.99;100.00;101072.22;5149958;29;20300;-71
2022/12/20 08:04:49;;;;;;;2.03;1.10;;;;;;;11.92;100.00;101063.22;5154017;29;20054;-71
2022/12/20 08:07:21;;;;;;;6.30;2.10;;;;;;;11.86;100.00;101061.16;5152132;29;20049;-71
2022/12/20 08:09:52;;;;;;;4.00;1.73;;;;;;;11.81;100.00;101061.50;5153266;28;20060;-71
2022/12/20 08:12:28;;;;;;;3.75;2.05;;;;;;;11.80;100.00;101065.09;5148889;28;20075;-72
2022/12/20 08:14:59;;;;;;;3.53;1.73;;;;;;;11.75;100.00;101053.34;5146738;29;20070;-72
2022/12/20 08:17:30;;;;;;;3.28;1.52;;;;;;;11.74;100.00;101054.28;5132503;29;20122;-72
2022/12/20 08:20:04;;;;;;;4.88;1.55;;;;;;;11.63;100.00;101042.94;5153585;29;20035;-72
2022/12/20 08:22:35;;;;;;;3.15;1.60;;;;;;;11.67;100.00;101060.06;5153736;28;20015;-72
2022/12/20 08:25:07;;;;;;;4.43;1.40;;;;;;;11.65;100.00;101061.16;5148586;29;20170;-71
2022/12/20 08:27:39;;;;;;;4.57;1.48;;;;;;;11.61;100.00;101067.63;5151373;29;20031;-71
2022/12/20 08:30:10;;;;;;;5.78;1.38;;;;;;;11.58;100.00;101058.22;5149089;29;20389;-71
2022/12/20 08:32:42;;;;;;;3.65;1.70;;;;;;;11.56;100.00;101056.72;5146286;28;20396;-72
2022/12/20 08:35:13;;;;;;;3.65;1.48;;;;;;;11.49;100.00;101051.16;5146097;28;20031;-71
2022/12/20 08:37:44;;;;;;;3.67;1.77;;;;;;;11.53;100.00;101051.72;5147454;29;20085;-72
2022/12/20 08:40:15;;;;;;;3.55;1.38;;;;;;;11.54;100.00;101056.00;5146794;29;20043;-72
2022/12/20 08:42:47;;;;;;;3.03;1.50;;;;;;;11.50;100.00;101049.34;5166258;23;20016;-73
2022/12/20 08:45:18;;;;;;;2.22;1.40;;;;;;;11.48;100.00;101046.00;5148999;28;20070;-72
2022/12/20 08:47:50;;;;;;;4.32;1.55;;;;;;;11.42;100.00;101047.38;5155925;28;20153;-71
2022/12/20 08:50:21;;;;;;;4.60;1.70;;;;;;;11.30;100.00;101023.03;5164016;28;20074;-71
2022/12/20 08:52:52;;;;;;;4.00;1.88;;;;;;;11.40;100.00;101038.78;5160073;28;20036;-72
2022/12/20 08:55:24;;;;;;;4.28;1.75;;;;;;;11.34;100.00;101034.91;5142509;29;20378;-72
2022/12/20 08:57:55;;;;;;;4.47;1.80;;;;;;;11.30;100.00;101036.16;5137825;29;20118;-72
2022/12/20 09:00:26;;;;;;;2.95;1.42;;;;;;;11.26;100.00;101042.59;5139408;29;20123;-72
2022/12/20 09:02:57;;;;;;;3.70;1.90;;;;;;;11.24;100.00;101038.44;5138491;29;20036;-72
2022/12/20 09:05:29;;;;;;;3.75;1.60;;;;;;;11.19;100.00;101037.03;5142407;29;20035;-72
2022/12/20 09:08:00;;;;;;;5.47;2.00;;;;;;;11.18;100.00;101029.31;5145447;29;20489;-72
2022/12/20 09:10:31;;;;;;;4.57;1.75;;;;;;;11.15;100.00;101026.94;5141012;29;20399;-72
2022/12/20 09:13:03;;;;;;;3.80;1.55;;;;;;;11.10;100.00;101011.63;5141975;28;20437;-72
2022/12/20 09:15:34;;;;;;;4.25;2.20;;;;;;;11.08;100.00;101018.75;5134864;29;20061;-72
2022/12/20 09:18:06;;;;;;;3.85;2.10;;;;;;;11.13;100.00;101028.84;5141618;29;20047;-73
2022/12/20 09:20:44;;;;;;;5.10;1.90;;;;;;;11.19;100.00;101026.56;5143272;29;20061;-72
2022/12/20 09:23:15;;;;;;;4.20;2.40;;;;;;;11.14;100.00;101025.28;5144104;29;20024;-72
2022/12/20 09:25:46;;;;;;;4.30;2.40;;;;;;;11.16;100.00;101028.59;5142744;29;20023;-72
2022/12/20 09:28:18;;;;;;;3.88;2.22;;;;;;;11.18;100.00;101037.19;5145182;29;20383;-72
2022/12/20 09:30:50;;;;;;;4.40;2.33;;;;;;;11.17;100.00;101027.63;5144200;29;20027;-72
2022/12/20 09:33:21;;;;;;;4.22;2.20;;;;;;;11.11;100.00;101010.66;5143493;29;20389;-72
2022/12/20 09:35:53;;;;;;;4.78;2.60;;;;;;;11.23;100.00;101035.00;5127135;29;20242;-72
2022/12/20 09:38:24;;;;;;;4.25;2.20;;;;;;;11.27;100.00;101033.78;5144052;29;20035;-72
2022/12/20 09:40:59;;;;;;;4.65;1.80;;;;;;;11.32;100.00;101026.34;5140348;29;20527;-72
2022/12/20 09:43:31;;;;;;;2.83;2.20;;;;;;;11.30;100.00;101017.78;5144674;28;20047;-72
2022/12/20 09:46:03;;;;;;;4.78;1.95;;;;;;;11.34;100.00;101024.44;5142385;29;20123;-72
2022/12/20 09:48:37;;;;;;;4.15;2.10;;;;;;;11.37;100.00;101034.66;5142586;29;20027;-72
2022/12/20 09:51:32;;;;;;;4.65;2.05;;;;;;;11.43;100.00;101028.06;5145760;29;20023;-72
2022/12/20 09:54:22;;;;;;;4.38;2.10;;;;;;;11.51;100.00;101022.16;5143850;29;20032;-72
2022/12/20 09:57:04;;;;;;;5.07;2.03;;;;;;;11.46;100.00;101014.69;5144163;29;20030;-72
2022/12/20 09:59:40;;;;;;;6.40;2.05;;;;;;;11.37;100.00;101034.66;5139671;29;20027;-72
2022/12/20 10:02:14;;;;;;;4.78;2.03;;;;;;;11.34;100.00;101027.06;5141218;29;20039;-72
2022/12/20 10:04:46;;;;;;;4.13;2.03;;;;;;;11.41;100.00;101024.75;5144387;28;20133;-72
2022/12/20 10:07:32;;;;;;;2.35;1.60;;;;;;;11.44;100.00;101022.69;5143911;29;20027;-72
2022/12/20 10:10:21;;;;;;;6.00;1.88;;;;;;;11.61;100.00;101015.97;5143157;28;20043;-72
2022/12/20 10:13:12;;;;;;;2.80;1.90;;;;;;;11.62;100.00;101015.00;5144226;28;20024;-72
2022/12/20 10:15:53;;;;;;;3.42;2.00;;;;;;;11.62;100.00;101015.00;5125673;29;20601;-72
2022/12/20 10:18:55;;;;;;;3.92;2.00;;;;;;;11.78;100.00;101017.16;5141350;29;20061;-72
2022/12/20 10:21:52;;;;;;;2.67;1.73;;;;;;;11.73;100.00;101023.75;5145959;28;20024;-72
2022/12/20 10:24:29;;;;;;;2.45;1.75;;;;;;;11.71;100.00;101020.44;5097452;29;20059;-72
2022/12/20 10:27:13;;;;;;;5.25;1.80;;;;;;;11.83;100.00;101022.84;5146550;29;20023;-72
2022/12/20 10:29:46;;;;;;;3.08;1.80;;;;;;;11.73;100.00;101032.47;5144614;29;20484;-72
2022/12/20 10:32:22;;;;;;;;;;;;;;;12.13;100.00;101021.97;5141296;29;20106;-72
2022/12/20 10:35:14;;;;;;;4.32;2.00;;;;;;;11.95;100.00;101028.00;5140893;28;19923;-72
2022/12/20 10:38:03;;;;;;;4.07;2.05;;;;;;;11.78;100.00;101016.31;5133046;29;20047;-72
2022/12/20 10:40:40;;;;;;;5.35;2.22;;;;;;;11.71;100.00;101020.44;5140396;29;20055;-72
2022/12/20 10:43:21;;;;;;;4.88;2.78;;;;;;;11.78;100.00;101013.69;5122273;29;20115;-72
2022/12/20 10:45:59;;;;;;;6.35;2.63;;;;;;;11.72;100.00;101011.59;5139036;29;20031;-72
2022/12/20 10:48:35;;;;;;;4.97;2.25;;;;;;;11.63;100.00;101006.19;5142677;29;20348;-72
2022/12/20 10:51:11;;;;;;;5.22;2.70;;;;;;;11.66;100.00;100999.81;5144041;29;20041;-72
2022/12/20 10:53:57;;;;;;;5.63;2.50;;;;;;;11.70;100.00;100998.59;5141355;29;20122;-72
2022/12/20 10:56:31;;;;;;;4.57;2.50;;;;;;;11.55;100.00;100995.50;5124673;29;20066;-72
2022/12/20 10:59:25;;;;;;;5.95;2.97;;;;;;;11.73;100.00;101000.13;5142597;29;20476;-72
2022/12/20 11:01:56;;;;;;;6.20;2.85;;;;;;;11.51;100.00;100996.75;5143989;29;20032;-72
2022/12/20 11:04:34;;;;;;;2.65;2.10;;;;;;;11.54;100.00;100978.09;5143079;28;20031;-72
2022/12/20 11:07:24;;;;;;;4.90;2.60;;;;;;;11.68;100.00;100992.66;5141105;29;20392;-72
2022/12/20 11:10:01;;;;;;;4.80;2.70;;;;;;;11.54;100.00;100991.22;5141409;29;20082;-72
2022/12/20 11:12:32;;;;;;;3.72;2.45;;;;;;;11.44;100.00;100975.47;5144626;29;20067;-72
2022/12/20 11:15:10;;;;;;;4.53;2.90;;;;;;;11.55;100.00;100994.69;5145132;28;20429;-72
2022/12/20 11:17:49;;;;;;;4.68;2.65;;;;;;;11.54;100.00;100983.34;5142063;29;20473;-72
2022/12/20 11:20:29;;;;;;;4.32;3.03;;;;;;;11.49;100.00;100985.56;5136203;29;20539;-72
2022/12/20 11:23:32;;;;;;;6.82;2.60;;;;;;;11.65;100.00;100985.06;5145093;28;20030;-72
2022/12/20 11:26:28;;;;;;;5.32;2.65;;;;;;;11.55;100.00;100984.19;5125049;29;20493;-72
2022/12/20 11:29:14;;;;;;;5.50;2.58;;;;;;;11.55;100.00;100981.56;5138197;29;20396;-72
2022/12/20 11:32:12;;;;;;;6.20;3.00;;;;;;;11.53;100.00;100988.75;5142321;29;20023;-72
2022/12/20 11:35:09;;;;;;;5.90;3.20;;;;;;;11.70;100.00;100985.47;5143650;28;20405;-72
2022/12/20 11:37:54;;;;;;;4.53;2.97;;;;;;;11.53;100.00;100975.63;5146017;29;20020;-72
2022/12/20 11:40:31;;;;;;;6.20;2.80;;;;;;;11.49;100.00;100974.25;5144554;29;20129;-72
2022/12/20 11:43:24;;;;;;;7.50;3.25;;;;;;;11.49;100.00;100977.69;5140508;29;20020;-72
2022/12/20 11:46:15;;;;;;;7.00;2.97;;;;;;;11.57;100.00;100975.22;5144726;29;20102;-72
2022/12/20 11:49:08;;;;;;;6.70;2.97;;;;;;;11.56;100.00;100970.13;5139176;29;20035;-72
2022/12/20 11:51:46;;;;;;;5.20;3.38;;;;;;;11.48;100.00;100964.69;5140114;29;20470;-72
2022/12/20 11:54:25;;;;;;;6.22;3.28;;;;;;;11.46;100.00;100962.22;5143361;29;20053;-72
2022/12/20 11:57:21;;;;;;;6.57;4.28;;;;;;;11.45;100.00;100958.75;5142553;29;20031;-72
2022/12/20 11:59:59;;;;;;;7.45;4.22;;;;;;;11.50;100.00;100958.34;5140403;29;20031;-72
2022/12/20 12:02:46;;;;;;;7.63;4.57;;;;;;;11.52;100.00;100950.38;5146562;29;20023;-72